createdAt,value
2019-02-14T00:01:19.697Z,9.80
2019-02-14T00:03:48.999Z,9.80
2019-02-14T00:06:18.339Z,9.80
2019-02-14T00:08:47.734Z,9.80
2019-02-14T00:11:17.114Z,9.90
2019-02-14T00:13:47.583Z,9.80
2019-02-14T00:16:17.143Z,9.80
2019-02-14T00:18:46.586Z,9.80
2019-02-14T00:21:16.104Z,9.80
2019-02-14T00:23:45.638Z,9.80
2019-02-14T00:26:15.092Z,9.80
2019-02-14T00:28:44.741Z,9.90
2019-02-14T00:31:30.250Z,9.90
2019-02-14T00:33:59.595Z,9.90
2019-02-14T00:36:29.092Z,9.90
2019-02-14T00:38:58.764Z,9.90
2019-02-14T00:41:28.660Z,9.90
2019-02-14T00:43:58.486Z,9.90
2019-02-14T00:46:28.212Z,9.90
2019-02-14T00:48:57.751Z,9.90
2019-02-14T00:51:27.500Z,9.90
2019-02-14T00:53:56.880Z,9.90
2019-02-14T00:56:26.262Z,9.90
2019-02-14T00:58:56.802Z,9.90
2019-02-14T01:01:28.829Z,9.80
2019-02-14T01:03:58.301Z,9.80
2019-02-14T01:06:27.973Z,9.80
2019-02-14T01:08:57.479Z,9.80
2019-02-14T01:11:28.874Z,9.80
2019-02-14T01:13:58.381Z,9.80
2019-02-14T01:16:27.793Z,9.90
2019-02-14T01:18:57.164Z,9.80
2019-02-14T01:21:26.647Z,9.80
2019-02-14T01:23:55.931Z,9.80
2019-02-14T01:26:25.530Z,9.80
2019-02-14T01:28:54.836Z,9.80
2019-02-14T01:31:24.225Z,9.80
2019-02-14T01:33:53.509Z,9.70
2019-02-14T01:36:23.005Z,9.70
2019-02-14T01:38:52.693Z,9.70
2019-02-14T01:41:22.123Z,9.80
2019-02-14T01:43:51.559Z,9.80
2019-02-14T01:46:21.001Z,9.80
2019-02-14T01:48:50.412Z,9.80
2019-02-14T01:51:19.723Z,9.80
2019-02-14T01:53:49.059Z,9.80
2019-02-14T01:56:18.427Z,9.70
2019-02-14T01:58:48.737Z,9.70
2019-02-14T02:01:18.102Z,9.70
2019-02-14T02:03:47.471Z,9.60
2019-02-14T02:06:16.888Z,9.60
2019-02-14T02:08:46.256Z,9.60
2019-02-14T02:11:15.687Z,9.50
2019-02-14T02:13:45.122Z,9.50
2019-02-14T02:16:14.463Z,9.50
2019-02-14T02:18:43.793Z,9.50
2019-02-14T02:21:13.322Z,9.50
2019-02-14T02:23:43.436Z,9.50
2019-02-14T02:26:14.144Z,9.50
2019-02-14T02:28:43.508Z,9.60
2019-02-14T02:31:12.941Z,9.60
2019-02-14T02:33:42.298Z,9.60
2019-02-14T02:36:11.570Z,9.60
2019-02-14T02:38:40.970Z,9.60
2019-02-14T02:41:12.616Z,9.60
2019-02-14T02:43:41.989Z,9.60
2019-02-14T02:46:11.952Z,9.60
2019-02-14T02:48:41.485Z,9.50
2019-02-14T02:51:10.947Z,9.50
2019-02-14T02:53:40.372Z,9.50
2019-02-14T02:56:09.644Z,9.50
2019-02-14T02:58:38.934Z,9.40
2019-02-14T03:01:08.424Z,9.40
2019-02-14T03:03:37.726Z,9.40
2019-02-14T03:06:10.637Z,9.40
2019-02-14T03:08:38.046Z,9.40
2019-02-14T03:11:07.441Z,9.40
2019-02-14T03:13:36.803Z,9.40
2019-02-14T03:16:06.098Z,9.40
2019-02-14T03:18:35.497Z,9.40
2019-02-14T03:21:04.833Z,9.40
2019-02-14T03:23:36.263Z,9.40
2019-02-14T03:26:05.669Z,9.40
2019-02-14T03:28:35.069Z,9.40
2019-02-14T03:31:04.485Z,9.40
2019-02-14T03:33:33.923Z,9.40
2019-02-14T03:36:03.307Z,9.40
2019-02-14T03:38:32.723Z,9.40
2019-02-14T03:41:02.220Z,9.40
2019-02-14T03:43:31.687Z,9.30
2019-02-14T03:46:04.011Z,9.20
2019-02-14T03:48:34.529Z,9.20
2019-02-14T03:51:03.957Z,9.20
2019-02-14T03:53:35.906Z,9.10
2019-02-14T03:56:05.340Z,9.00
2019-02-14T03:58:34.739Z,8.90
2019-02-14T04:01:04.170Z,8.90
2019-02-14T04:03:33.641Z,8.80
2019-02-14T04:06:04.187Z,8.80
2019-02-14T04:08:34.812Z,8.70
2019-02-14T04:11:04.328Z,8.70
2019-02-14T04:13:33.750Z,8.70
2019-02-14T04:16:04.479Z,8.70
2019-02-14T04:18:37.234Z,8.70
2019-02-14T04:21:07.200Z,8.60
2019-02-14T04:23:37.490Z,8.70
2019-02-14T04:26:07.416Z,8.70
2019-02-14T04:28:37.011Z,8.70
2019-02-14T04:31:06.412Z,8.70
2019-02-14T04:33:35.798Z,8.70
2019-02-14T04:36:05.330Z,8.70
2019-02-14T04:38:34.834Z,8.70
2019-02-14T04:41:04.211Z,8.70
2019-02-14T04:43:33.845Z,8.70
2019-02-14T04:46:03.148Z,8.70
2019-02-14T04:48:32.426Z,8.80
2019-02-14T04:51:01.726Z,8.70
2019-02-14T04:53:31.367Z,8.70
2019-02-14T04:56:01.425Z,8.70
2019-02-14T04:58:31.539Z,8.70
2019-02-14T05:01:02.584Z,8.70
2019-02-14T05:03:32.588Z,8.70
2019-02-14T05:06:02.429Z,8.60
2019-02-14T05:08:31.881Z,8.60
2019-02-14T05:11:01.198Z,8.50
2019-02-14T05:13:30.521Z,8.50
2019-02-14T05:15:59.930Z,8.40
2019-02-14T05:18:29.198Z,8.30
2019-02-14T05:20:58.917Z,8.30
2019-02-14T05:23:28.409Z,8.20
2019-02-14T05:25:57.803Z,8.20
2019-02-14T05:28:27.189Z,8.10
2019-02-14T05:30:57.069Z,8.00
2019-02-14T05:33:26.563Z,7.90
2019-02-14T05:35:55.939Z,7.80
2019-02-14T05:38:25.315Z,7.80
2019-02-14T05:40:54.611Z,7.70
2019-02-14T05:43:23.852Z,7.70
2019-02-14T05:45:53.322Z,7.70
2019-02-14T05:48:23.190Z,7.80
2019-02-14T05:50:53.172Z,7.80
2019-02-14T05:53:22.629Z,7.80
2019-02-14T05:55:51.985Z,7.80
2019-02-14T05:58:21.331Z,7.80
2019-02-14T06:00:50.704Z,7.80
2019-02-14T06:03:20.069Z,7.80
2019-02-14T06:05:49.539Z,7.80
2019-02-14T06:08:18.956Z,7.90
2019-02-14T06:10:50.436Z,7.90
2019-02-14T06:13:19.954Z,7.90
2019-02-14T06:15:49.771Z,8.00
2019-02-14T06:18:19.219Z,7.90
2019-02-14T06:20:48.586Z,8.00
2019-02-14T06:23:18.127Z,8.00
2019-02-14T06:25:47.805Z,8.00
2019-02-14T06:28:18.633Z,8.00
2019-02-14T06:30:48.145Z,7.90
2019-02-14T06:33:18.836Z,8.00
2019-02-14T06:35:48.790Z,8.00
2019-02-14T06:38:48.296Z,7.90
2019-02-14T06:41:19.030Z,7.90
2019-02-14T06:43:49.378Z,7.90
2019-02-14T06:46:20.462Z,7.90
2019-02-14T06:48:49.908Z,7.90
2019-02-14T06:51:19.395Z,7.90
2019-02-14T06:53:50.045Z,7.90
2019-02-14T06:56:20.123Z,7.90
2019-02-14T06:58:50.231Z,7.90
2019-02-14T07:01:19.537Z,7.80
2019-02-14T07:03:49.073Z,7.80
2019-02-14T07:06:20.345Z,7.80
2019-02-14T07:08:53.134Z,7.80
2019-02-14T07:11:22.797Z,7.80
2019-02-14T07:13:52.419Z,7.80
2019-02-14T07:16:26.158Z,7.80
2019-02-14T07:18:55.675Z,7.70
2019-02-14T07:21:25.151Z,7.80
2019-02-14T07:23:54.969Z,7.80
2019-02-14T07:26:24.793Z,7.90
2019-02-14T07:28:54.717Z,8.00
2019-02-14T07:31:24.506Z,8.00
2019-02-14T07:33:54.337Z,8.10
2019-02-14T07:36:24.711Z,8.20
2019-02-14T07:38:54.283Z,8.20
2019-02-14T07:41:24.181Z,8.30
2019-02-14T07:43:53.815Z,8.40
2019-02-14T07:46:23.692Z,8.50
2019-02-14T07:48:56.283Z,8.60
2019-02-14T07:51:25.992Z,8.60
2019-02-14T07:53:55.584Z,8.70
2019-02-14T07:56:25.228Z,8.80
2019-02-14T07:58:54.701Z,8.80
2019-02-14T08:01:24.500Z,8.80
2019-02-14T08:03:59.342Z,8.90
2019-02-14T08:06:29.107Z,8.90
2019-02-14T08:08:58.850Z,9.00
2019-02-14T08:11:28.634Z,9.00
2019-02-14T08:13:59.403Z,9.10
2019-02-14T08:16:30.326Z,9.20
2019-02-14T08:19:01.075Z,9.30
2019-02-14T08:21:30.973Z,9.40
2019-02-14T08:24:04.638Z,9.40
2019-02-14T08:26:34.202Z,9.50
2019-02-14T08:29:04.036Z,9.50
2019-02-14T08:31:37.788Z,9.60
2019-02-14T08:34:10.534Z,9.70
2019-02-14T08:36:45.771Z,9.70
2019-02-14T08:39:15.535Z,9.70
2019-02-14T08:41:45.134Z,9.70
2019-02-14T08:44:14.756Z,9.70
2019-02-14T08:46:45.282Z,9.80
2019-02-14T08:49:15.899Z,9.80
2019-02-14T08:51:47.313Z,9.90
2019-02-14T08:54:16.744Z,9.90
2019-02-14T08:56:46.248Z,9.90
2019-02-14T08:59:22.454Z,9.90
2019-02-14T09:01:52.152Z,9.90
2019-02-14T09:04:23.283Z,9.90
2019-02-14T09:06:52.824Z,9.90
2019-02-14T09:09:22.329Z,9.90
2019-02-14T09:11:51.914Z,9.90
2019-02-14T09:14:27.116Z,9.80
2019-02-14T09:16:56.825Z,9.90
2019-02-14T09:19:41.430Z,9.90
2019-02-14T09:22:26.761Z,9.90
2019-02-14T09:24:56.468Z,10.00
2019-02-14T09:27:28.393Z,10.00
2019-02-14T09:29:58.149Z,10.20
2019-02-14T09:32:27.644Z,10.20
2019-02-14T09:34:59.125Z,10.30
2019-02-14T09:37:28.605Z,10.30
2019-02-14T09:39:58.229Z,10.30
2019-02-14T09:42:29.162Z,10.30
2019-02-14T09:44:58.907Z,10.30
2019-02-14T09:47:28.451Z,10.20
2019-02-14T09:49:58.991Z,10.20
2019-02-14T09:52:28.531Z,10.20
2019-02-14T09:55:06.447Z,10.20
2019-02-14T09:57:35.958Z,10.10
2019-02-14T10:00:09.859Z,10.10
2019-02-14T10:02:41.830Z,10.00
2019-02-14T10:05:11.682Z,10.00
2019-02-14T10:07:42.078Z,10.00
2019-02-14T10:10:14.156Z,10.00
2019-02-14T10:12:43.586Z,10.10
2019-02-14T10:15:14.160Z,10.10
2019-02-14T10:17:43.622Z,10.20
2019-02-14T10:20:14.490Z,10.20
2019-02-14T10:22:44.894Z,10.30
2019-02-14T10:25:14.448Z,10.40
2019-02-14T10:27:43.802Z,10.40
2019-02-14T10:30:15.700Z,10.40
2019-02-14T10:32:47.506Z,10.40
2019-02-14T10:35:16.913Z,10.50
2019-02-14T10:37:47.472Z,10.50
2019-02-14T10:40:16.864Z,10.60
2019-02-14T10:42:46.118Z,10.60
2019-02-14T10:45:19.608Z,10.70
2019-02-14T10:47:48.875Z,10.70
2019-02-14T10:50:24.634Z,10.80
2019-02-14T10:52:56.025Z,10.80
2019-02-14T10:55:29.350Z,10.80
2019-02-14T10:57:58.835Z,10.80
2019-02-14T11:00:32.529Z,10.90
2019-02-14T11:03:01.965Z,10.90
2019-02-14T11:05:37.614Z,10.90
2019-02-14T11:08:07.090Z,10.90
2019-02-14T11:10:36.581Z,11.00
2019-02-14T11:13:06.115Z,11.10
2019-02-14T11:15:35.775Z,11.20
2019-02-14T11:18:06.537Z,11.20
2019-02-14T11:20:38.247Z,11.30
2019-02-14T11:23:07.639Z,11.30
2019-02-14T11:25:40.304Z,11.40
2019-02-14T11:28:10.713Z,11.40
2019-02-14T11:30:40.169Z,11.50
2019-02-14T11:33:15.465Z,11.50
2019-02-14T11:35:47.407Z,11.60
2019-02-14T11:38:17.006Z,11.60
2019-02-14T11:40:47.522Z,11.60
2019-02-14T11:43:16.972Z,11.60
2019-02-14T11:45:46.629Z,11.60
2019-02-14T11:48:16.978Z,11.60
2019-02-14T11:50:46.526Z,11.60
2019-02-14T11:53:15.928Z,11.80
2019-02-14T11:55:45.423Z,12.40
2019-02-14T11:58:15.191Z,13.50
2019-02-14T12:00:44.939Z,14.80
2019-02-14T12:03:15.358Z,15.80
2019-02-14T12:05:45.100Z,16.80
2019-02-14T12:08:14.765Z,17.80
2019-02-14T12:10:44.500Z,18.40
2019-02-14T12:13:14.131Z,19.20
2019-02-14T12:15:44.022Z,20.10
2019-02-14T12:18:15.803Z,20.70
2019-02-14T12:20:45.452Z,21.30
2019-02-14T12:23:16.467Z,22.00
2019-02-14T12:26:30.443Z,22.60
2019-02-14T12:29:00.703Z,23.40
2019-02-14T12:31:31.265Z,24.60
2019-02-14T12:34:00.779Z,25.30
2019-02-14T12:36:31.664Z,25.80
2019-02-14T12:39:08.664Z,26.10
2019-02-14T12:41:35.345Z,26.30
2019-02-14T12:44:05.402Z,26.40
2019-02-14T12:46:36.007Z,26.70
2019-02-14T12:49:05.951Z,27.30
2019-02-14T12:51:35.680Z,27.70
2019-02-14T12:54:08.660Z,27.80
2019-02-14T12:56:38.892Z,27.90
2019-02-14T12:59:21.975Z,28.30
2019-02-14T13:01:52.027Z,28.50
2019-02-14T13:04:22.949Z,28.50
2019-02-14T13:06:53.133Z,28.60
2019-02-14T13:09:35.498Z,28.70
2019-02-14T13:12:12.497Z,28.40
2019-02-14T13:14:42.823Z,28.20
2019-02-14T13:17:12.718Z,28.10
2019-02-14T13:19:50.464Z,28.10
2019-02-14T13:22:21.250Z,28.50
2019-02-14T13:24:52.889Z,28.80
2019-02-14T13:27:23.960Z,28.80
2019-02-14T13:29:55.336Z,28.80
2019-02-14T13:32:31.242Z,28.70
2019-02-14T13:35:09.332Z,28.60
2019-02-14T13:37:40.763Z,28.80
2019-02-14T13:40:11.486Z,29.30
2019-02-14T13:42:42.306Z,29.90
2019-02-14T13:45:15.110Z,30.50
2019-02-14T13:47:45.152Z,30.30
2019-02-14T13:50:19.517Z,29.30
2019-02-14T13:52:51.833Z,27.90
2019-02-14T13:56:02.002Z,26.20
2019-02-14T13:58:42.881Z,24.50
2019-02-14T14:01:12.989Z,22.80
2019-02-14T14:03:42.681Z,21.50
2019-02-14T14:06:13.379Z,20.40
2019-02-14T14:08:44.237Z,19.40
2019-02-14T14:11:14.416Z,18.60
2019-02-14T14:13:47.445Z,18.00
2019-02-14T14:19:16.133Z,17.00
2019-02-14T14:21:48.690Z,16.40
2019-02-14T14:24:28.563Z,16.10
2019-02-14T14:27:19.965Z,15.80
2019-02-14T14:29:49.920Z,15.60
2019-02-14T14:32:27.423Z,15.30
2019-02-14T14:34:58.459Z,15.10
2019-02-14T14:37:29.440Z,14.90
2019-02-14T14:39:59.428Z,14.70
2019-02-14T14:42:59.008Z,14.60
2019-02-14T14:45:38.884Z,14.40
2019-02-14T14:48:19.224Z,14.30
2019-02-14T14:50:44.182Z,14.20
2019-02-14T14:53:20.392Z,14.10
2019-02-14T14:55:59.538Z,14.00
2019-02-14T14:58:30.992Z,13.90
2019-02-14T15:01:04.164Z,13.80
2019-02-14T15:03:40.708Z,13.70
2019-02-14T15:06:15.338Z,13.60
2019-02-14T15:08:48.644Z,13.60
2019-02-14T15:11:37.583Z,13.50
2019-02-14T15:14:10.981Z,13.50
2019-02-14T15:16:43.678Z,13.40
2019-02-14T15:19:16.413Z,13.40
2019-02-14T15:21:58.690Z,13.30
2019-02-14T15:24:28.160Z,13.20
2019-02-14T15:26:57.558Z,13.20
2019-02-14T15:29:31.456Z,13.10
2019-02-14T15:32:00.923Z,13.00
2019-02-14T15:34:30.476Z,13.00
2019-02-14T15:36:59.935Z,12.90
2019-02-14T15:39:30.201Z,12.80
2019-02-14T15:42:03.255Z,12.80
2019-02-14T15:44:33.949Z,12.80
2019-02-14T15:47:05.996Z,12.70
2019-02-14T15:49:40.447Z,12.60
2019-02-14T15:52:14.699Z,12.60
2019-02-14T15:54:45.302Z,12.50
2019-02-14T15:57:20.446Z,12.50
2019-02-14T15:59:52.059Z,12.40
2019-02-14T16:02:28.869Z,12.30
2019-02-14T16:04:59.509Z,12.20
2019-02-14T16:07:31.879Z,12.10
2019-02-14T16:10:05.913Z,12.10
2019-02-14T16:12:45.879Z,12.10
2019-02-14T16:15:16.098Z,12.00
2019-02-14T16:17:48.653Z,11.90
2019-02-14T16:20:19.829Z,11.90
2019-02-14T16:22:49.817Z,11.80
2019-02-14T16:25:20.224Z,11.80
2019-02-14T16:27:50.681Z,11.70
2019-02-14T16:30:21.316Z,11.60
2019-02-14T16:32:53.271Z,11.60
2019-02-14T16:35:25.099Z,11.50
2019-02-14T16:38:01.543Z,11.50
2019-02-14T16:40:38.220Z,11.40
2019-02-14T16:43:02.810Z,11.30
2019-02-14T16:45:32.568Z,11.40
2019-02-14T16:48:02.148Z,11.20
2019-02-14T16:50:31.908Z,11.10
2019-02-14T16:53:02.838Z,11.00
2019-02-14T16:55:40.036Z,11.00
2019-02-14T16:58:13.238Z,10.90
2019-02-14T17:00:42.924Z,10.90
2019-02-14T17:03:13.870Z,10.80
2019-02-14T17:05:43.274Z,10.80
2019-02-14T17:08:12.927Z,10.70
2019-02-14T17:10:42.404Z,10.60
2019-02-14T17:13:13.158Z,10.60
2019-02-14T17:15:42.655Z,10.50
2019-02-14T17:18:19.031Z,10.40
2019-02-14T17:20:55.822Z,10.40
2019-02-14T17:23:25.322Z,10.30
2019-02-14T17:25:54.921Z,10.30
2019-02-14T17:28:25.719Z,10.20
2019-02-14T17:30:56.529Z,10.10
2019-02-14T17:33:26.583Z,10.10
2019-02-14T17:35:58.955Z,10.00
2019-02-14T17:38:28.679Z,9.90
2019-02-14T17:40:59.477Z,9.80
2019-02-14T17:43:29.103Z,9.60
2019-02-14T17:45:59.599Z,9.60
2019-02-14T17:48:29.386Z,9.40
2019-02-14T17:51:00.493Z,9.30
2019-02-14T17:53:31.353Z,9.30
2019-02-14T17:56:02.631Z,9.10
2019-02-14T17:58:36.945Z,9.10
2019-02-14T18:01:07.079Z,9.00
2019-02-14T18:03:39.213Z,8.80
2019-02-14T18:06:11.744Z,8.80
2019-02-14T18:08:42.729Z,8.70
2019-02-14T18:11:12.751Z,8.60
2019-02-14T18:13:43.823Z,8.50
2019-02-14T18:16:14.309Z,8.40
2019-02-14T18:18:46.538Z,8.30
2019-02-14T18:21:16.907Z,8.30
2019-02-14T18:24:09.209Z,8.10
2019-02-14T18:26:40.844Z,8.10
2019-02-14T18:29:15.915Z,8.00
2019-02-14T18:31:46.051Z,7.90
2019-02-14T18:34:16.032Z,7.90
2019-02-14T18:40:35.158Z,7.70
2019-02-14T18:43:04.914Z,7.60
2019-02-14T18:45:34.637Z,7.50
2019-02-14T18:48:04.141Z,7.40
2019-02-14T18:50:44.382Z,7.30
2019-02-14T18:54:00.742Z,7.30
2019-02-14T18:56:31.695Z,7.20
2019-02-14T18:59:08.212Z,7.00
2019-02-14T19:01:39.493Z,7.00
2019-02-14T19:04:10.225Z,6.90
2019-02-14T19:06:40.685Z,6.80
2019-02-14T19:09:11.266Z,6.80
2019-02-14T19:11:41.089Z,6.80
2019-02-14T19:14:10.746Z,6.70
2019-02-14T19:16:40.230Z,6.70
2019-02-14T19:19:16.921Z,6.60
2019-02-14T19:21:46.441Z,6.50
2019-02-14T19:24:18.770Z,6.40
2019-02-14T19:26:53.062Z,6.30
2019-02-14T19:29:22.863Z,6.30
2019-02-14T19:31:53.336Z,6.20
2019-02-14T19:34:29.236Z,6.20
2019-02-14T19:36:58.852Z,6.10
2019-02-14T19:39:33.305Z,6.10
2019-02-14T19:42:03.899Z,6.00
2019-02-14T19:44:40.095Z,6.00
2019-02-14T19:47:09.650Z,6.00
2019-02-14T19:49:39.103Z,5.90
2019-02-14T19:52:08.563Z,5.90
2019-02-14T19:54:59.851Z,5.90
2019-02-14T19:57:30.601Z,5.90
2019-02-14T20:00:01.053Z,5.70
2019-02-14T20:02:31.640Z,5.70
2019-02-14T20:05:02.310Z,5.60
2019-02-14T20:07:34.097Z,5.60
2019-02-14T20:10:03.765Z,5.50
2019-02-14T20:12:35.217Z,5.50
2019-02-14T20:15:06.701Z,5.50
2019-02-14T20:17:39.397Z,5.40
2019-02-14T20:20:10.147Z,5.40
2019-02-14T20:22:45.751Z,5.30
2019-02-14T20:25:17.183Z,5.30
2019-02-14T20:27:46.895Z,5.30
2019-02-14T20:30:17.757Z,5.30
2019-02-14T20:32:49.554Z,5.20
2019-02-14T20:35:19.227Z,5.10
2019-02-14T20:37:54.072Z,5.10
2019-02-14T20:40:32.059Z,5.10
2019-02-14T20:43:02.672Z,5.10
2019-02-14T20:45:35.232Z,5.00
2019-02-14T20:48:07.164Z,5.10
2019-02-14T20:50:36.920Z,5.00
2019-02-14T20:53:07.393Z,5.00
2019-02-14T20:55:36.751Z,5.00
2019-02-14T20:58:10.200Z,4.90
2019-02-14T21:00:40.928Z,4.90
2019-02-14T21:03:19.692Z,4.80
2019-02-14T21:05:52.374Z,4.80
2019-02-14T21:08:21.695Z,4.80
2019-02-14T21:10:52.614Z,4.70
2019-02-14T21:13:22.190Z,4.70
2019-02-14T21:15:52.093Z,4.70
2019-02-14T21:18:21.532Z,4.70
2019-02-14T21:20:50.996Z,4.70
2019-02-14T21:23:20.486Z,4.70
2019-02-14T21:25:50.052Z,4.70
2019-02-14T21:28:20.430Z,4.70
2019-02-14T21:30:50.058Z,4.70
2019-02-14T21:33:19.955Z,4.70
2019-02-14T21:35:55.429Z,4.70
2019-02-14T21:38:26.035Z,4.60
2019-02-14T21:40:55.539Z,4.70
2019-02-14T21:43:25.003Z,4.70
2019-02-14T21:45:54.332Z,4.70
2019-02-14T21:48:24.764Z,4.70
2019-02-14T21:50:55.191Z,4.60
2019-02-14T21:53:24.569Z,4.70
2019-02-14T21:55:56.000Z,4.60
2019-02-14T21:58:26.405Z,4.60
2019-02-14T22:00:55.788Z,4.60
2019-02-14T22:03:26.185Z,4.60
2019-02-14T22:05:57.766Z,4.60
2019-02-14T22:08:27.264Z,4.60
2019-02-14T22:10:57.780Z,4.60
2019-02-14T22:13:27.231Z,4.60
2019-02-14T22:16:07.749Z,4.50
2019-02-14T22:18:37.149Z,4.50
2019-02-14T22:21:06.506Z,4.50
2019-02-14T22:23:35.842Z,4.50
2019-02-14T22:26:05.172Z,4.50
2019-02-14T22:28:36.628Z,4.50
2019-02-14T22:31:07.100Z,4.40
2019-02-14T22:33:36.612Z,4.40
2019-02-14T22:36:13.050Z,4.50
2019-02-14T22:38:44.225Z,4.40
2019-02-14T22:41:13.700Z,4.40
2019-02-14T22:43:45.228Z,4.40
2019-02-14T22:46:14.642Z,4.30
2019-02-14T22:48:43.954Z,4.30
2019-02-14T22:51:15.406Z,4.30
2019-02-14T22:53:46.037Z,4.30
2019-02-14T22:56:15.415Z,4.30
2019-02-14T22:58:44.901Z,4.30
2019-02-14T23:01:14.871Z,4.30
2019-02-14T23:03:45.366Z,4.20
2019-02-14T23:06:14.924Z,4.20
2019-02-14T23:08:44.258Z,4.10
2019-02-14T23:11:19.466Z,4.10
2019-02-14T23:13:49.761Z,4.10
2019-02-14T23:16:28.959Z,4.10
2019-02-14T23:18:58.336Z,4.10
2019-02-14T23:21:27.761Z,4.00
2019-02-14T23:23:57.043Z,4.00
2019-02-14T23:26:27.401Z,4.00
2019-02-14T23:28:56.879Z,4.00
2019-02-14T23:31:26.400Z,4.00
2019-02-14T23:33:56.751Z,3.90
2019-02-14T23:36:26.047Z,3.90
2019-02-14T23:38:56.491Z,3.90
2019-02-14T23:41:25.907Z,3.90
2019-02-14T23:43:56.306Z,3.90
2019-02-14T23:46:25.599Z,3.90
2019-02-14T23:48:56.069Z,3.90
2019-02-14T23:51:25.503Z,3.80
2019-02-14T23:53:55.811Z,3.80
2019-02-14T23:56:25.315Z,3.80
2019-02-14T23:58:54.586Z,3.80
